Time,TemperatureF,DewpointF,PressureIn,WindDirection,WindDirectionDegrees,WindSpeedMPH,WindSpeedGustMPH,Humidity,HourlyPrecipIn,Conditions,Clouds,dailyrainin,SoftwareType,DateUTC
2013-02-07 00:09:00,18.1,9.7,30.39,WSW,240,0.0,3.0,69,0.00,CLR,,0.00,WeatherDisplay:10.37,2013-02-07 05:09:00,
2013-02-07 00:29:00,18.1,10.0,30.38,West,266,1.0,5.0,70,0.00,CLR,,0.00,WeatherDisplay:10.37,2013-02-07 05:29:00,
2013-02-07 00:39:00,17.6,9.8,30.39,West,261,0.0,2.0,71,0.00,CLR,,0.00,WeatherDisplay:10.37,2013-02-07 05:39:00,
2013-02-07 00:49:00,17.2,9.7,30.39,West,261,0.0,2.0,72,0.00,CLR,,0.00,WeatherDisplay:10.37,2013-02-07 05:49:00,
2013-02-07 00:59:00,16.6,9.4,30.39,West,264,2.0,5.0,73,0.00,CLR,,0.00,WeatherDisplay:10.37,2013-02-07 05:59:00,
2013-02-07 01:09:00,16.7,9.5,30.39,WNW,301,0.0,5.0,73,0.00,CLR,,0.00,WeatherDisplay:10.37,2013-02-07 06:09:00,
2013-02-07 01:19:00,16.9,9.4,30.39,WNW,288,2.0,5.0,72,0.00,CLR,,0.00,WeatherDisplay:10.37,2013-02-07 06:19:00,
2013-02-07 01:29:00,17.1,9.6,30.38,WNW,300,1.0,6.0,72,0.00,CLR,,0.00,WeatherDisplay:10.37,2013-02-07 06:29:00,
2013-02-07 01:39:00,16.3,9.2,30.38,NW,305,1.0,5.0,73,0.00,CLR,,0.00,WeatherDisplay:10.37,2013-02-07 06:39:00,
2013-02-07 01:49:00,15.9,9.1,30.38,NW,311,1.0,5.0,74,0.00,CLR,,0.00,WeatherDisplay:10.37,2013-02-07 06:49:00,
2013-02-07 01:59:00,15.7,9.2,30.38,NW,312,0.0,2.0,75,0.00,CLR,,0.00,WeatherDisplay:10.37,2013-02-07 06:59:00,
2013-02-07 02:09:00,15.4,9.2,30.38,NW,312,0.0,3.0,76,0.00,CLR,,0.00,WeatherDisplay:10.37,2013-02-07 07:09:00,
2013-02-07 02:19:00,15.3,9.1,30.39,NW,312,0.0,3.0,76,0.00,CLR,,0.00,WeatherDisplay:10.37,2013-02-07 07:19:00,
2013-02-07 02:29:00,14.6,8.7,30.39,NW,312,1.0,3.0,77,0.00,CLR,,0.00,WeatherDisplay:10.37,2013-02-07 07:29:00,
2013-02-07 02:39:00,14.7,9.1,30.40,NW,310,1.0,3.0,78,0.00,CLR,,0.00,WeatherDisplay:10.37,2013-02-07 07:39:00,
2013-02-07 02:49:00,14.6,9.0,30.40,NW,306,3.0,5.0,78,0.00,CLR,,0.00,WeatherDisplay:10.37,2013-02-07 07:49:00,
2013-02-07 02:59:00,14.9,9.3,30.40,NW,307,3.0,9.0,78,0.00,CLR,,0.00,WeatherDisplay:10.37,2013-02-07 07:59:00,
2013-02-07 03:09:00,16.0,9.2,30.40,WNW,290,1.0,8.0,74,0.00,CLR,,0.00,WeatherDisplay:10.37,2013-02-07 08:09:00,
2013-02-07 03:19:00,16.3,9.1,30.41,WNW,286,2.0,8.0,73,0.00,CLR,,0.00,WeatherDisplay:10.37,2013-02-07 08:19:00,
2013-02-07 03:29:00,16.3,8.9,30.42,WNW,287,6.0,8.0,72,0.00,CLR,,0.00,WeatherDisplay:10.37,2013-02-07 08:29:00,
2013-02-07 03:39:00,16.2,8.8,30.42,West,276,2.0,8.0,72,0.00,CLR,,0.00,WeatherDisplay:10.37,2013-02-07 08:39:00,
2013-02-07 03:49:00,15.9,8.5,30.42,West,271,0.0,5.0,72,0.00,CLR,,0.00,WeatherDisplay:10.37,2013-02-07 08:49:00,
2013-02-07 03:59:00,15.7,8.6,30.42,West,279,2.0,5.0,73,0.00,CLR,,0.00,WeatherDisplay:10.37,2013-02-07 08:59:00,
2013-02-07 04:09:00,15.7,8.6,30.42,NW,312,5.0,6.0,73,0.00,CLR,,0.00,WeatherDisplay:10.37,2013-02-07 09:09:00,
2013-02-07 04:19:00,15.8,8.4,30.42,WNW,292,3.0,8.0,72,0.00,CLR,,0.00,WeatherDisplay:10.37,2013-02-07 09:19:00,
2013-02-07 04:29:00,15.8,8.4,30.42,WNW,300,3.0,8.0,72,0.00,CLR,,0.00,WeatherDisplay:10.37,2013-02-07 09:29:00,
2013-02-07 04:39:00,15.6,8.2,30.43,NW,304,1.0,3.0,72,0.00,CLR,,0.00,WeatherDisplay:10.37,2013-02-07 09:39:00,
2013-02-07 04:49:00,15.2,8.1,30.42,NW,307,0.0,2.0,73,0.00,CLR,,0.00,WeatherDisplay:10.37,2013-02-07 09:49:00,
2013-02-07 04:59:00,15.1,8.3,30.43,NW,308,0.0,2.0,74,0.00,CLR,,0.00,WeatherDisplay:10.37,2013-02-07 09:59:00,
2013-02-07 05:09:00,14.9,8.5,30.43,NW,308,0.0,2.0,75,0.00,CLR,,0.00,WeatherDisplay:10.37,2013-02-07 10:09:00,
2013-02-07 05:19:00,15.1,8.3,30.44,NW,308,0.0,2.0,74,0.00,CLR,,0.00,WeatherDisplay:10.37,2013-02-07 10:19:00,
2013-02-07 05:29:00,14.2,8.0,30.44,NW,308,0.0,2.0,76,0.00,CLR,,0.00,WeatherDisplay:10.37,2013-02-07 10:29:00,
2013-02-07 05:39:00,13.7,8.1,30.44,WNW,290,5.0,6.0,78,0.00,CLR,,0.00,WeatherDisplay:10.37,2013-02-07 10:39:00,
2013-02-07 05:49:00,14.2,8.0,30.44,NW,304,3.0,5.0,76,0.00,CLR,,0.00,WeatherDisplay:10.37,2013-02-07 10:49:00,
2013-02-07 05:59:00,14.6,7.8,30.45,WNW,288,2.0,5.0,74,0.00,CLR,,0.00,WeatherDisplay:10.37,2013-02-07 10:59:00,
2013-02-07 06:09:00,14.6,7.8,30.46,WNW,288,1.0,5.0,74,0.00,FEW,,0.00,WeatherDisplay:10.37,2013-02-07 11:09:00,
2013-02-07 06:19:00,14.6,7.9,30.47,WNW,301,3.0,5.0,74,0.00,FEW,,0.00,WeatherDisplay:10.37,2013-02-07 11:19:00,
2013-02-07 06:29:00,14.3,7.5,30.47,WNW,300,0.0,3.0,74,0.00,FEW,,0.00,WeatherDisplay:10.37,2013-02-07 11:29:00,
2013-02-07 06:39:00,13.7,7.6,30.49,WNW,297,1.0,5.0,76,0.00,FEW,,0.00,WeatherDisplay:10.37,2013-02-07 11:39:00,
2013-02-07 06:49:00,13.7,7.8,30.49,WNW,299,1.0,6.0,77,0.00,FEW,,0.00,WeatherDisplay:10.37,2013-02-07 11:49:00,
2013-02-07 06:59:00,13.6,7.7,30.50,NW,316,1.0,5.0,77,0.00,FEW,,0.00,WeatherDisplay:10.37,2013-02-07 11:59:00,
2013-02-07 07:09:00,13.8,7.6,30.50,NW,304,2.0,8.0,76,0.00,SCT,,0.00,WeatherDisplay:10.37,2013-02-07 12:09:00,
2013-02-07 07:19:00,13.8,7.6,30.51,NW,325,2.0,6.0,76,0.00,SCT,,0.00,WeatherDisplay:10.37,2013-02-07 12:19:00,
2013-02-07 07:29:00,13.9,7.5,30.51,NW,323,5.0,8.0,75,0.00,SCT,,0.00,WeatherDisplay:10.37,2013-02-07 12:29:00,
2013-02-07 07:39:00,14.1,7.0,30.51,NNW,331,6.0,6.0,73,0.00,SCT,,0.00,WeatherDisplay:10.37,2013-02-07 12:39:00,
2013-02-07 07:49:00,14.5,7.1,30.52,NNW,348,5.0,8.0,72,0.00,SCT,,0.00,WeatherDisplay:10.37,2013-02-07 12:49:00,
2013-02-07 07:59:00,14.9,6.9,30.52,NNW,345,5.0,8.0,70,0.00,SCT,,0.00,WeatherDisplay:10.37,2013-02-07 12:59:00,
2013-02-07 08:09:00,15.4,7.1,30.53,NNE,22,5.0,6.0,69,0.00,SCT,,0.00,WeatherDisplay:10.37,2013-02-07 13:09:00,
2013-02-07 08:19:00,15.9,7.2,30.54,NNE,12,3.0,8.0,68,0.00,SCT,,0.00,WeatherDisplay:10.37,2013-02-07 13:19:00,
2013-02-07 08:29:00,16.2,7.2,30.54,NNE,31,8.0,9.0,67,0.00,SCT,,0.00,WeatherDisplay:10.37,2013-02-07 13:29:00,
2013-02-07 08:39:00,16.6,7.2,30.54,NNE,32,2.0,8.0,66,0.00,SCT,,0.00,WeatherDisplay:10.37,2013-02-07 13:39:00,
2013-02-07 08:49:00,17.1,7.0,30.55,North,8,2.0,8.0,64,0.00,SCT,,0.00,WeatherDisplay:10.37,2013-02-07 13:49:00,
2013-02-07 08:59:00,17.3,6.5,30.55,NNE,26,3.0,8.0,62,0.00,SCT,,0.00,WeatherDisplay:10.37,2013-02-07 13:59:00,
2013-02-07 09:09:00,18.2,6.3,30.55,North,6,2.0,6.0,59,0.00,SCT,,0.00,WeatherDisplay:10.37,2013-02-07 14:09:00,
2013-02-07 09:19:00,17.8,5.5,30.55,NNE,31,0.0,6.0,58,0.00,SCT,,0.00,WeatherDisplay:10.37,2013-02-07 14:19:00,
2013-02-07 09:29:00,18.6,5.5,30.56,NE,36,6.0,8.0,56,0.00,SCT,,0.00,WeatherDisplay:10.37,2013-02-07 14:29:00,
2013-02-07 09:39:00,19.2,6.1,30.56,NNE,17,2.0,8.0,56,0.00,SCT,,0.00,WeatherDisplay:10.37,2013-02-07 14:39:00,
2013-02-07 09:49:00,19.4,5.8,30.56,ENE,60,5.0,8.0,55,0.00,SCT,,0.00,WeatherDisplay:10.37,2013-02-07 14:49:00,
2013-02-07 09:59:00,19.6,6.0,30.55,NNE,26,12.0,12.0,55,0.00,SCT,,0.00,WeatherDisplay:10.37,2013-02-07 14:59:00,
2013-02-07 10:09:00,19.6,6.4,30.56,NNW,336,9.0,11.0,56,0.00,SCT,,0.00,WeatherDisplay:10.37,2013-02-07 15:09:00,
2013-02-07 10:19:00,20.2,6.2,30.56,NNE,18,6.0,9.0,54,0.00,SCT,,0.00,WeatherDisplay:10.37,2013-02-07 15:19:00,
2013-02-07 10:29:00,21.0,6.1,30.56,NE,35,2.0,12.0,52,0.00,SCT,,0.00,WeatherDisplay:10.37,2013-02-07 15:29:00,
2013-02-07 10:39:00,21.0,7.0,30.56,NNE,27,10.0,12.0,54,0.00,SCT,,0.00,WeatherDisplay:10.37,2013-02-07 15:39:00,
2013-02-07 10:49:00,20.8,6.4,30.56,NNW,345,8.0,12.0,53,0.00,SCT,,0.00,WeatherDisplay:10.37,2013-02-07 15:49:00,
2013-02-07 10:59:00,21.2,6.3,30.56,NNW,344,7.0,14.0,52,0.00,SCT,,0.00,WeatherDisplay:10.37,2013-02-07 15:59:00,
2013-02-07 11:09:00,20.8,6.0,30.56,North,2,3.0,12.0,52,0.00,BKN,,0.00,WeatherDisplay:10.37,2013-02-07 16:09:00,
2013-02-07 11:19:00,21.0,6.1,30.55,North,349,5.0,11.0,52,0.00,BKN,,0.00,WeatherDisplay:10.37,2013-02-07 16:19:00,
2013-02-07 11:29:00,21.3,6.0,30.55,NNW,340,9.0,12.0,51,0.00,BKN,,0.00,WeatherDisplay:10.37,2013-02-07 16:29:00,
2013-02-07 11:39:00,21.6,7.1,30.54,NNE,24,6.0,11.0,53,0.00,BKN,,0.00,WeatherDisplay:10.37,2013-02-07 16:39:00,
2013-02-07 11:49:00,22.0,7.0,30.53,North,8,5.0,9.0,52,0.00,BKN,,0.00,WeatherDisplay:10.37,2013-02-07 16:49:00,
2013-02-07 11:59:00,22.2,6.8,30.53,North,359,7.0,12.0,51,0.00,BKN,,0.00,WeatherDisplay:10.37,2013-02-07 16:59:00,
2013-02-07 12:09:00,22.9,7.5,30.52,NNW,333,2.0,12.0,51,0.00,BKN,,0.00,WeatherDisplay:10.37,2013-02-07 17:09:00,
2013-02-07 12:19:00,24.0,7.6,30.52,NNE,25,12.0,15.0,49,0.00,BKN,,0.00,WeatherDisplay:10.37,2013-02-07 17:19:00,
2013-02-07 12:29:00,23.9,7.0,30.51,NE,39,3.0,11.0,48,0.00,BKN,,0.00,WeatherDisplay:10.37,2013-02-07 17:29:00,
2013-02-07 12:39:00,25.5,8.1,30.51,North,354,8.0,14.0,47,0.00,BKN,,0.00,WeatherDisplay:10.37,2013-02-07 17:39:00,
2013-02-07 12:49:00,25.2,8.2,30.51,NNE,29,5.0,11.0,48,0.00,BKN,,0.00,WeatherDisplay:10.37,2013-02-07 17:49:00,
2013-02-07 12:59:00,25.7,8.2,30.50,North,359,2.0,9.0,47,0.00,BKN,,0.00,WeatherDisplay:10.37,2013-02-07 17:59:00,
2013-02-07 13:09:00,26.2,7.2,30.50,ENE,60,6.0,12.0,44,0.00,BKN,,0.00,WeatherDisplay:10.37,2013-02-07 18:09:00,
2013-02-07 13:19:00,25.7,8.2,30.50,NNE,13,5.0,8.0,47,0.00,BKN,,0.00,WeatherDisplay:10.37,2013-02-07 18:19:00,
2013-02-07 13:29:00,26.6,7.6,30.49,ENE,60,7.0,11.0,44,0.00,BKN,,0.00,WeatherDisplay:10.37,2013-02-07 18:29:00,
2013-02-07 13:39:00,27.0,8.4,30.48,NNE,20,12.0,12.0,45,0.00,BKN,,0.00,WeatherDisplay:10.37,2013-02-07 18:39:00,
2013-02-07 13:49:00,27.2,8.7,30.48,NNW,327,9.0,11.0,45,0.00,BKN,,0.00,WeatherDisplay:10.37,2013-02-07 18:49:00,
2013-02-07 13:59:00,26.2,7.7,30.48,NNE,23,7.0,15.0,45,0.00,BKN,,0.00,WeatherDisplay:10.37,2013-02-07 18:59:00,
2013-02-07 14:09:00,25.9,7.4,30.48,NNE,31,3.0,12.0,45,0.00,BKN,,0.00,WeatherDisplay:10.37,2013-02-07 19:09:00,
2013-02-07 14:19:00,25.9,8.4,30.48,NNW,337,9.0,12.0,47,0.00,BKN,,0.00,WeatherDisplay:10.37,2013-02-07 19:19:00,
2013-02-07 14:29:00,26.1,8.6,30.48,NNE,16,8.0,11.0,47,0.00,BKN,,0.00,WeatherDisplay:10.37,2013-02-07 19:29:00,
2013-02-07 14:39:00,25.8,8.3,30.48,North,355,9.0,12.0,47,0.00,BKN,,0.00,WeatherDisplay:10.37,2013-02-07 19:39:00,
2013-02-07 14:49:00,25.3,7.9,30.47,NNW,341,12.0,14.0,47,0.00,BKN,,0.00,WeatherDisplay:10.37,2013-02-07 19:49:00,
2013-02-07 14:59:00,25.4,7.5,30.47,North,359,10.0,12.0,46,0.00,BKN,,0.00,WeatherDisplay:10.37,2013-02-07 19:59:00,
2013-02-07 15:09:00,25.3,7.8,30.47,North,8,8.0,14.0,47,0.00,BKN,,0.00,WeatherDisplay:10.37,2013-02-07 20:09:00,
2013-02-07 15:19:00,25.3,7.4,30.46,North,357,9.0,12.0,46,0.00,BKN,,0.00,WeatherDisplay:10.37,2013-02-07 20:19:00,
2013-02-07 15:29:00,25.2,7.8,30.46,North,349,3.0,14.0,47,0.00,BKN,,0.00,WeatherDisplay:10.37,2013-02-07 20:29:00,
2013-02-07 15:39:00,25.5,8.0,30.45,North,11,5.0,11.0,47,0.00,BKN,,0.00,WeatherDisplay:10.37,2013-02-07 20:39:00,
2013-02-07 15:49:00,25.2,7.3,30.45,NNE,22,5.0,9.0,46,0.00,BKN,,0.00,WeatherDisplay:10.37,2013-02-07 20:49:00,
2013-02-07 15:59:00,25.6,8.1,30.44,NNW,339,10.0,11.0,47,0.00,BKN,,0.00,WeatherDisplay:10.37,2013-02-07 20:59:00,
2013-02-07 16:09:00,25.4,7.0,30.44,North,3,2.0,9.0,45,0.00,BKN,,0.00,WeatherDisplay:10.37,2013-02-07 21:09:00,
2013-02-07 16:19:00,25.1,7.6,30.43,North,7,7.0,11.0,47,0.00,BKN,,0.00,WeatherDisplay:10.37,2013-02-07 21:19:00,
2013-02-07 16:29:00,24.9,7.5,30.43,North,1,8.0,11.0,47,0.00,BKN,,0.00,WeatherDisplay:10.37,2013-02-07 21:29:00,
2013-02-07 16:39:00,24.8,7.8,30.43,North,349,2.0,9.0,48,0.00,BKN,,0.00,WeatherDisplay:10.37,2013-02-07 21:39:00,
2013-02-07 16:49:00,24.7,7.8,30.44,North,352,3.0,9.0,48,0.00,BKN,,0.00,WeatherDisplay:10.37,2013-02-07 21:49:00,
2013-02-07 16:59:00,24.5,8.1,30.44,North,4,3.0,8.0,49,0.00,BKN,,0.00,WeatherDisplay:10.37,2013-02-07 21:59:00,
2013-02-07 17:09:00,24.3,7.9,30.44,North,351,7.0,11.0,49,0.00,BKN,,0.00,WeatherDisplay:10.37,2013-02-07 22:09:00,
2013-02-07 17:19:00,24.0,7.6,30.44,NNW,347,3.0,11.0,49,0.00,BKN,,0.00,WeatherDisplay:10.37,2013-02-07 22:19:00,
2013-02-07 17:29:00,24.0,7.6,30.44,North,354,10.0,12.0,49,0.00,BKN,,0.00,WeatherDisplay:10.37,2013-02-07 22:29:00,
2013-02-07 17:39:00,23.8,7.4,30.44,NNW,345,2.0,12.0,49,0.00,BKN,,0.00,WeatherDisplay:10.37,2013-02-07 22:39:00,
2013-02-07 17:49:00,23.8,7.4,30.45,NNW,339,8.0,8.0,49,0.00,BKN,,0.00,WeatherDisplay:10.37,2013-02-07 22:49:00,
2013-02-07 17:59:00,23.7,7.3,30.45,NNW,332,7.0,11.0,49,0.00,BKN,,0.00,WeatherDisplay:10.37,2013-02-07 22:59:00,
2013-02-07 18:09:00,23.5,7.6,30.45,NNW,340,9.0,12.0,50,0.00,BKN,,0.00,WeatherDisplay:10.37,2013-02-07 23:09:00,
2013-02-07 18:19:00,23.2,7.3,30.45,North,352,5.0,14.0,50,0.00,BKN,,0.00,WeatherDisplay:10.37,2013-02-07 23:19:00,
2013-02-07 18:29:00,23.1,7.2,30.45,NNE,20,6.0,11.0,50,0.00,BKN,,0.00,WeatherDisplay:10.37,2013-02-07 23:29:00,
2013-02-07 18:39:00,23.0,7.5,30.45,North,358,2.0,9.0,51,0.00,BKN,,0.00,WeatherDisplay:10.37,2013-02-07 23:39:00,
2013-02-07 18:49:00,22.9,7.4,30.44,NNE,29,2.0,9.0,51,0.00,BKN,,0.00,WeatherDisplay:10.37,2013-02-07 23:49:00,
2013-02-07 18:59:00,22.8,7.4,30.44,North,8,2.0,11.0,51,0.00,BKN,,0.00,WeatherDisplay:10.37,2013-02-07 23:59:00,
2013-02-07 19:09:00,22.6,7.6,30.44,NNE,30,2.0,11.0,52,0.00,BKN,,0.00,WeatherDisplay:10.37,2013-02-08 00:09:00,
2013-02-07 19:19:00,22.5,7.5,30.43,North,359,6.0,11.0,52,0.00,BKN,,0.00,WeatherDisplay:10.37,2013-02-08 00:19:00,
2013-02-07 19:29:00,22.3,7.7,30.44,North,2,8.0,12.0,53,0.00,BKN,,0.00,WeatherDisplay:10.37,2013-02-08 00:29:00,
2013-02-07 19:39:00,22.1,7.6,30.44,North,359,10.0,12.0,53,0.00,BKN,,0.00,WeatherDisplay:10.37,2013-02-08 00:39:00,
2013-02-07 19:49:00,22.0,7.9,30.44,NNW,347,3.0,11.0,54,0.00,BKN,,0.00,WeatherDisplay:10.37,2013-02-08 00:49:00,
2013-02-07 19:59:00,21.9,8.2,30.44,NNW,346,1.0,9.0,55,0.00,BKN,,0.00,WeatherDisplay:10.37,2013-02-08 00:59:00,
2013-02-07 20:09:00,21.8,8.1,30.44,North,7,8.0,9.0,55,0.00,OVC,,0.00,WeatherDisplay:10.37,2013-02-08 01:09:00,
2013-02-07 20:19:00,21.7,7.6,30.44,NNW,330,6.0,12.0,54,0.00,OVC,,0.00,WeatherDisplay:10.37,2013-02-08 01:19:00,
2013-02-07 20:29:00,21.6,7.5,30.43,NNE,19,3.0,11.0,54,0.00,OVC,,0.00,WeatherDisplay:10.37,2013-02-08 01:29:00,
2013-02-07 20:39:00,21.5,7.8,30.44,NNE,13,5.0,8.0,55,0.00,OVC,,0.00,WeatherDisplay:10.37,2013-02-08 01:39:00,
2013-02-07 20:49:00,21.1,8.2,30.44,North,11,3.0,8.0,57,0.00,OVC,,0.00,WeatherDisplay:10.37,2013-02-08 01:49:00,
2013-02-07 20:59:00,21.0,8.1,30.44,North,3,1.0,6.0,57,0.00,OVC,,0.00,WeatherDisplay:10.37,2013-02-08 01:59:00,
2013-02-07 21:09:00,20.8,7.6,30.44,NNW,328,1.0,3.0,56,0.00,OVC,,0.00,WeatherDisplay:10.37,2013-02-08 02:09:00,
2013-02-07 21:19:00,20.6,7.8,30.43,NNW,343,2.0,5.0,57,0.00,OVC,,0.00,WeatherDisplay:10.37,2013-02-08 02:19:00,
2013-02-07 21:29:00,20.5,7.6,30.43,NNW,348,2.0,5.0,57,0.00,OVC,,0.00,WeatherDisplay:10.37,2013-02-08 02:29:00,
2013-02-07 21:39:00,20.3,7.9,30.43,North,3,1.0,3.0,58,0.00,OVC,,0.00,WeatherDisplay:10.37,2013-02-08 02:39:00,
2013-02-07 21:49:00,20.2,8.1,30.43,North,356,2.0,5.0,59,0.00,OVC,,0.00,WeatherDisplay:10.37,2013-02-08 02:49:00,
2013-02-07 21:59:00,20.2,7.8,30.42,NNE,15,0.0,3.0,58,0.00,OVC,,0.00,WeatherDisplay:10.37,2013-02-08 02:59:00,
2013-02-07 22:09:00,20.1,8.1,30.42,North,356,2.0,5.0,59,0.00,BKN,,0.00,WeatherDisplay:10.37,2013-02-08 03:09:00,
2013-02-07 22:19:00,19.7,8.0,30.42,NNE,21,0.0,3.0,60,0.00,BKN,,0.00,WeatherDisplay:10.37,2013-02-08 03:19:00,
2013-02-07 22:29:00,19.4,8.1,30.42,NNE,31,0.0,3.0,61,0.00,BKN,,0.00,WeatherDisplay:10.37,2013-02-08 03:29:00,
2013-02-07 22:39:00,19.3,8.0,30.42,NNW,333,0.0,3.0,61,0.00,BKN,,0.00,WeatherDisplay:10.37,2013-02-08 03:39:00,
2013-02-07 22:49:00,19.5,8.2,30.41,NNE,26,2.0,5.0,61,0.00,BKN,,0.00,WeatherDisplay:10.37,2013-02-08 03:49:00,
2013-02-07 22:59:00,19.5,7.9,30.41,NE,40,5.0,6.0,60,0.00,BKN,,0.00,WeatherDisplay:10.37,2013-02-08 03:59:00,
2013-02-07 23:09:00,19.5,8.3,30.41,NNE,23,0.0,6.0,61,0.00,BKN,,0.00,WeatherDisplay:10.37,2013-02-08 04:09:00,
2013-02-07 23:19:00,19.5,8.2,30.41,NE,35,0.0,6.0,61,0.00,BKN,,0.00,WeatherDisplay:10.37,2013-02-08 04:19:00,
2013-02-07 23:29:00,19.7,8.8,30.40,NE,35,0.0,6.0,62,0.00,BKN,,0.00,WeatherDisplay:10.37,2013-02-08 04:29:00,
2013-02-07 23:39:00,19.7,8.8,30.40,NNE,20,0.0,6.0,62,0.00,BKN,,0.00,WeatherDisplay:10.37,2013-02-08 04:39:00,
2013-02-07 23:49:00,19.8,8.9,30.40,NNE,18,2.0,6.0,62,0.00,BKN,,0.00,WeatherDisplay:10.37,2013-02-08 04:49:00,
2013-02-07 23:59:00,19.8,8.9,30.39,NNE,21,1.0,8.0,62,0.00,BKN,,0.00,WeatherDisplay:10.37,2013-02-08 04:59:00,